createdAt,value
2018-12-01T00:01:59.770Z,98457.21
2018-12-01T00:04:27.280Z,98456.06
2018-12-01T00:06:54.941Z,98453.37
2018-12-01T00:09:22.482Z,98455.61
2018-12-01T00:11:50.093Z,98465.39
2018-12-01T00:14:17.662Z,98457.60
2018-12-01T00:16:45.239Z,98454.22
2018-12-01T00:19:13.653Z,98451.48
2018-12-01T00:21:41.354Z,98457.48
2018-12-01T00:24:08.930Z,98455.89
2018-12-01T00:26:36.475Z,98463.53
2018-12-01T00:29:04.105Z,98457.09
2018-12-01T00:31:31.753Z,98456.88
2018-12-01T00:33:59.403Z,98454.85
2018-12-01T00:36:26.962Z,98453.13
2018-12-01T00:38:54.611Z,98453.64
2018-12-01T00:41:22.195Z,98459.84
2018-12-01T00:43:49.723Z,98463.08
2018-12-01T00:46:17.306Z,98463.29
2018-12-01T00:48:44.930Z,98462.84
2018-12-01T00:51:12.860Z,98461.53
2018-12-01T00:53:40.432Z,98469.89
2018-12-01T00:56:08.015Z,98467.34
2018-12-01T00:58:35.606Z,98469.10
2018-12-01T01:01:03.181Z,98469.14
2018-12-01T01:03:30.750Z,98485.75
2018-12-01T01:05:58.334Z,98490.58
2018-12-01T01:08:25.894Z,98490.81
2018-12-01T01:10:53.566Z,98490.73
2018-12-01T01:13:21.140Z,98494.14
2018-12-01T01:15:48.666Z,98487.50
2018-12-01T01:18:16.270Z,98492.21
2018-12-01T01:20:43.839Z,98494.80
2018-12-01T01:23:11.450Z,98499.55
2018-12-01T01:25:39.046Z,98496.02
2018-12-01T01:28:06.859Z,98490.18
2018-12-01T01:30:34.590Z,98489.68
2018-12-01T01:33:07.670Z,98492.30
2018-12-01T01:35:35.262Z,98490.44
2018-12-01T01:38:02.840Z,98494.42
2018-12-01T01:40:30.580Z,98496.15
2018-12-01T01:42:58.164Z,98502.35
2018-12-01T01:45:25.742Z,98511.41
2018-12-01T01:47:53.297Z,98510.55
2018-12-01T01:50:21.154Z,98511.82
2018-12-01T01:52:48.781Z,98509.59
2018-12-01T01:55:16.357Z,98506.66
2018-12-01T01:57:44.096Z,98507.47
2018-12-01T02:00:16.262Z,98506.66
2018-12-01T02:02:44.282Z,98512.14
2018-12-01T02:05:11.907Z,98507.25
2018-12-01T02:07:39.614Z,98505.84
2018-12-01T02:10:07.610Z,98503.12
2018-12-01T02:12:35.166Z,98505.75
2018-12-01T02:15:02.762Z,98508.72
2018-12-01T02:17:30.318Z,98505.23
2018-12-01T02:19:58.027Z,98504.78
2018-12-01T02:22:25.707Z,98505.23
2018-12-01T02:24:53.390Z,98503.47
2018-12-01T02:27:21.133Z,98503.07
2018-12-01T02:29:48.840Z,98505.14
2018-12-01T02:32:16.371Z,98501.64
2018-12-01T02:34:44.113Z,98506.95
2018-12-01T02:37:11.740Z,98507.41
2018-12-01T02:39:39.428Z,98505.66
2018-12-01T02:42:06.970Z,98499.53
2018-12-01T02:44:40.133Z,98506.16
2018-12-01T02:47:08.354Z,98504.39
2018-12-01T02:49:36.052Z,98509.69
2018-12-01T02:52:03.582Z,98505.34
2018-12-01T02:54:31.090Z,98514.85
2018-12-01T02:56:58.881Z,98514.54
2018-12-01T02:59:26.419Z,98516.67
2018-12-01T03:01:54.162Z,98510.51
2018-12-01T03:04:21.728Z,98511.41
2018-12-01T03:06:49.276Z,98508.83
2018-12-01T03:09:16.872Z,98507.06
2018-12-01T03:11:44.548Z,98513.64
2018-12-01T03:14:12.131Z,98511.59
2018-12-01T03:16:39.743Z,98518.58
2018-12-01T03:19:07.297Z,98523.02
2018-12-01T03:21:34.811Z,98517.44
2018-12-01T03:24:02.422Z,98520.15
2018-12-01T03:26:30.130Z,98519.45
2018-12-01T03:28:57.809Z,98515.93
2018-12-01T03:31:25.334Z,98517.77
2018-12-01T03:33:53.231Z,98520.44
2018-12-01T03:36:20.773Z,98521.41
2018-12-01T03:38:48.346Z,98517.47
2018-12-01T03:41:16.116Z,98514.84
2018-12-01T03:43:43.635Z,98524.52
2018-12-01T03:46:11.205Z,98522.83
2018-12-01T03:48:38.741Z,98516.23
2018-12-01T03:51:06.298Z,98511.84
2018-12-01T03:53:33.851Z,98518.82
2018-12-01T03:56:01.529Z,98514.84
2018-12-01T03:58:29.478Z,98511.92
2018-12-01T04:00:57.065Z,98516.49
2018-12-01T04:03:24.611Z,98509.56
2018-12-01T04:05:52.193Z,98506.93
2018-12-01T04:08:19.736Z,98504.77
2018-12-01T04:10:47.278Z,98519.30
2018-12-01T04:13:14.847Z,98521.59
2018-12-01T04:15:42.436Z,98522.00
2018-12-01T04:18:09.957Z,98520.66
2018-12-01T04:20:37.487Z,98521.06
2018-12-01T04:23:05.465Z,98517.51
2018-12-01T04:25:33.060Z,98515.78
2018-12-01T04:28:00.625Z,98517.47
2018-12-01T04:30:28.375Z,98519.12
2018-12-01T04:32:56.019Z,98530.94
2018-12-01T04:35:24.376Z,98529.31
2018-12-01T04:37:52.511Z,98532.36
2018-12-01T04:40:20.082Z,98538.95
2018-12-01T04:42:48.163Z,98535.02
2018-12-01T04:45:15.969Z,98531.12
2018-12-01T04:47:43.781Z,98526.66
2018-12-01T04:50:12.402Z,98525.23
2018-12-01T04:52:40.009Z,98522.53
2018-12-01T04:55:08.415Z,98521.66
2018-12-01T04:57:35.940Z,98525.16
2018-12-01T05:00:03.777Z,98530.78
2018-12-01T05:02:31.273Z,98523.35
2018-12-01T05:04:58.860Z,98528.53
2018-12-01T05:07:27.752Z,98523.72
2018-12-01T05:09:55.420Z,98529.02
2018-12-01T05:12:22.996Z,98531.23
2018-12-01T05:14:50.678Z,98535.25
2018-12-01T05:17:18.326Z,98534.76
2018-12-01T05:19:45.891Z,98537.37
2018-12-01T05:22:13.508Z,98542.59
2018-12-01T05:24:41.093Z,98538.62
2018-12-01T05:27:08.770Z,98535.95
2018-12-01T05:29:36.502Z,98550.80
2018-12-01T05:32:04.147Z,98542.06
2018-12-01T05:34:31.733Z,98547.27
2018-12-01T05:36:59.378Z,98546.53
2018-12-01T05:39:27.086Z,98546.20
2018-12-01T05:41:54.739Z,98545.19
2018-12-01T05:46:55.653Z,98544.39
2018-12-01T05:49:23.331Z,98547.47
2018-12-01T05:51:50.943Z,98547.92
2018-12-01T05:54:18.473Z,98551.48
2018-12-01T05:56:46.085Z,98550.35
2018-12-01T05:59:13.761Z,98555.66
2018-12-01T06:01:41.498Z,98554.45
2018-12-01T06:04:09.082Z,98555.81
2018-12-01T06:06:36.644Z,98560.36
2018-12-01T06:09:06.035Z,98565.75
2018-12-01T06:11:33.708Z,98555.34
2018-12-01T06:14:01.322Z,98560.50
2018-12-01T06:16:28.918Z,98559.30
2018-12-01T06:18:57.071Z,98568.08
2018-12-01T06:21:24.645Z,98568.07
2018-12-01T06:23:52.341Z,98577.73
2018-12-01T06:26:19.895Z,98582.56
2018-12-01T06:28:47.461Z,98586.45
2018-12-01T06:31:15.003Z,98590.89
2018-12-01T06:33:42.595Z,98592.64
2018-12-01T06:36:10.230Z,98594.39
2018-12-01T06:38:37.789Z,98606.61
2018-12-01T06:41:05.354Z,98609.25
2018-12-01T06:43:32.982Z,98614.49
2018-12-01T06:46:00.638Z,98614.96
2018-12-01T06:48:28.199Z,98618.02
2018-12-01T06:50:56.021Z,98622.39
2018-12-01T06:53:23.554Z,98624.56
2018-12-01T06:55:51.104Z,98623.28
2018-12-01T06:58:18.722Z,98621.95
2018-12-01T07:00:46.346Z,98617.17
2018-12-01T07:03:13.961Z,98623.25
2018-12-01T07:05:41.583Z,98625.39
2018-12-01T07:08:09.130Z,98626.72
2018-12-01T07:10:36.675Z,98625.39
2018-12-01T07:13:04.248Z,98634.56
2018-12-01T07:15:35.504Z,98635.00
2018-12-01T07:18:07.563Z,98626.25
2018-12-01T07:20:35.224Z,98639.33
2018-12-01T07:23:02.862Z,98631.89
2018-12-01T07:25:30.947Z,98628.77
2018-12-01T07:27:58.741Z,98623.92
2018-12-01T07:30:26.813Z,98624.71
2018-12-01T07:32:54.437Z,98626.00
2018-12-01T07:35:21.982Z,98629.53
2018-12-01T07:37:49.661Z,98626.94
2018-12-01T07:40:17.638Z,98629.53
2018-12-01T07:42:45.325Z,98625.59
2018-12-01T07:45:14.282Z,98620.33
2018-12-01T07:47:41.866Z,98615.92
2018-12-01T07:50:10.354Z,98618.57
2018-12-01T07:52:38.118Z,98629.05
2018-12-01T07:55:05.960Z,98625.12
2018-12-01T07:57:33.531Z,98621.64
2018-12-01T08:00:01.125Z,98621.61
2018-12-01T08:02:28.755Z,98629.88
2018-12-01T08:04:56.426Z,98628.92
2018-12-01T08:07:23.971Z,98638.95
2018-12-01T08:09:51.723Z,98631.83
2018-12-01T08:12:19.305Z,98627.02
2018-12-01T08:14:46.951Z,98626.01
2018-12-01T08:17:14.479Z,98621.59
2018-12-01T08:19:42.006Z,98623.27
2018-12-01T08:22:09.586Z,98620.61
2018-12-01T08:24:37.201Z,98620.06
2018-12-01T08:27:04.953Z,98620.02
2018-12-01T08:29:32.468Z,98629.97
2018-12-01T08:32:00.101Z,98632.52
2018-12-01T08:34:27.721Z,98626.74
2018-12-01T08:36:55.565Z,98618.25
2018-12-01T08:39:23.192Z,98623.67
2018-12-01T08:41:50.710Z,98625.39
2018-12-01T08:44:18.307Z,98620.92
2018-12-01T08:47:01.465Z,98624.78
2018-12-01T08:49:29.950Z,98612.98
2018-12-01T08:51:57.556Z,98616.34
2018-12-01T08:54:25.134Z,98607.09
2018-12-01T08:56:52.678Z,98596.39
2018-12-01T08:59:20.330Z,98592.85
2018-12-01T09:01:48.671Z,98587.64
2018-12-01T09:04:16.427Z,98592.00
2018-12-01T09:06:43.983Z,98589.67
2018-12-01T09:09:11.601Z,98582.28
2018-12-01T09:11:39.322Z,98585.06
2018-12-01T09:14:07.018Z,98585.40
2018-12-01T09:16:35.327Z,98600.09
2018-12-01T09:19:03.164Z,98604.94
2018-12-01T09:21:30.817Z,98602.31
2018-12-01T09:23:58.638Z,98603.97
2018-12-01T09:26:26.511Z,98606.64
2018-12-01T09:28:54.352Z,98600.91
2018-12-01T09:31:22.007Z,98597.64
2018-12-01T09:33:49.756Z,98601.27
2018-12-01T09:36:17.419Z,98604.08
2018-12-01T09:38:45.112Z,98604.23
2018-12-01T09:41:12.921Z,98599.62
2018-12-01T09:43:40.701Z,98601.21
2018-12-01T09:46:08.390Z,98603.05
2018-12-01T09:48:36.129Z,98598.09
2018-12-01T09:51:03.821Z,98593.48
2018-12-01T09:53:31.670Z,98587.73
2018-12-01T09:55:59.244Z,98591.08
2018-12-01T09:58:27.067Z,98585.91
2018-12-01T10:00:54.614Z,98586.78
2018-12-01T10:03:22.185Z,98590.31
2018-12-01T10:05:49.840Z,98591.16
2018-12-01T10:08:17.576Z,98581.66
2018-12-01T10:10:45.271Z,98586.95
2018-12-01T10:13:12.812Z,98588.70
2018-12-01T10:15:40.367Z,98592.49
2018-12-01T10:18:08.626Z,98580.55
2018-12-01T10:20:36.268Z,98573.37
2018-12-01T10:23:05.673Z,98581.72
2018-12-01T10:25:33.296Z,98570.38
2018-12-01T10:28:04.810Z,98573.41
2018-12-01T10:30:34.107Z,98568.06
2018-12-01T10:33:01.965Z,98563.99
2018-12-01T10:35:29.639Z,98564.70
2018-12-01T10:37:57.972Z,98562.16
2018-12-01T10:40:25.666Z,98557.03
2018-12-01T10:42:53.447Z,98549.86
2018-12-01T10:45:21.427Z,98543.97
2018-12-01T10:47:49.179Z,98547.81
2018-12-01T10:50:17.316Z,98543.95
2018-12-01T10:52:45.212Z,98551.56
2018-12-01T10:55:30.191Z,98550.72
2018-12-01T10:58:00.385Z,98552.80
2018-12-01T11:00:33.369Z,98549.80
2018-12-01T11:03:06.883Z,98551.84
2018-12-01T11:05:35.167Z,98544.17
2018-12-01T11:08:02.970Z,98541.92
2018-12-01T11:10:30.770Z,98532.88
2018-12-01T11:12:58.440Z,98528.80
2018-12-01T11:15:26.093Z,98526.39
2018-12-01T11:17:53.784Z,98520.36
2018-12-01T11:20:21.466Z,98522.05
2018-12-01T11:22:49.117Z,98528.05
2018-12-01T11:25:16.793Z,98523.61
2018-12-01T11:27:44.422Z,98518.81
2018-12-01T11:30:15.529Z,98516.93
2018-12-01T11:32:43.217Z,98514.66
2018-12-01T11:35:14.412Z,98504.47
2018-12-01T11:37:41.983Z,98499.54
2018-12-01T11:40:11.480Z,98499.18
2018-12-01T11:42:39.205Z,98494.62
2018-12-01T11:45:07.899Z,98491.47
2018-12-01T11:47:35.414Z,98484.55
2018-12-01T11:50:03.274Z,98480.58
2018-12-01T11:52:30.895Z,98473.56
2018-12-01T11:54:58.485Z,98469.38
2018-12-01T11:57:26.139Z,98467.30
2018-12-01T11:59:53.683Z,98469.55
2018-12-01T12:02:21.223Z,98463.41
2018-12-01T12:04:48.734Z,98464.32
2018-12-01T12:07:21.978Z,98460.17
2018-12-01T12:09:49.568Z,98461.16
2018-12-01T12:12:17.302Z,98462.69
2018-12-01T12:14:44.910Z,98465.00
2018-12-01T12:17:12.748Z,98460.84
2018-12-01T12:19:40.345Z,98464.74
2018-12-01T12:22:07.898Z,98454.95
2018-12-01T12:24:35.487Z,98475.73
2018-12-01T12:27:03.148Z,98465.08
2018-12-01T12:29:30.871Z,98463.54
2018-12-01T12:32:05.368Z,98456.95
2018-12-01T12:34:32.954Z,98460.34
2018-12-01T12:37:00.510Z,98448.64
2018-12-01T12:39:28.125Z,98451.19
2018-12-01T12:41:55.797Z,98450.47
2018-12-01T12:44:23.327Z,98450.69
2018-12-01T12:46:50.872Z,98443.36
2018-12-01T12:49:18.521Z,98434.41
2018-12-01T12:51:46.046Z,98430.48
2018-12-01T12:54:13.582Z,98421.46
2018-12-01T12:56:41.942Z,98423.20
2018-12-01T12:59:09.497Z,98422.16
2018-12-01T13:01:37.044Z,98431.36
2018-12-01T13:04:07.408Z,98425.87
2018-12-01T13:06:35.040Z,98421.80
2018-12-01T13:09:02.869Z,98419.79
2018-12-01T13:11:30.492Z,98417.16
2018-12-01T13:13:58.194Z,98412.84
2018-12-01T13:16:25.787Z,98406.87
2018-12-01T13:18:53.572Z,98401.12
2018-12-01T13:21:21.206Z,98390.15
2018-12-01T13:23:48.842Z,98390.05
2018-12-01T13:26:16.396Z,98381.67
2018-12-01T13:28:43.983Z,98385.59
2018-12-01T13:31:12.325Z,98390.91
2018-12-01T13:33:40.056Z,98383.12
2018-12-01T13:36:08.674Z,98376.69
2018-12-01T13:38:36.516Z,98375.39
2018-12-01T13:41:04.347Z,98380.30
2018-12-01T13:43:31.925Z,98385.37
2018-12-01T13:45:59.697Z,98389.24
2018-12-01T13:48:27.364Z,98385.55
2018-12-01T13:50:55.046Z,98381.02
2018-12-01T13:53:22.643Z,98380.47
2018-12-01T13:55:50.368Z,98372.79
2018-12-01T13:58:18.050Z,98383.98
2018-12-01T14:00:45.748Z,98389.06
2018-12-01T14:03:13.391Z,98386.20
2018-12-01T14:05:42.070Z,98389.25
2018-12-01T14:08:09.792Z,98396.13
2018-12-01T14:10:40.207Z,98395.19
2018-12-01T14:13:09.409Z,98397.20
2018-12-01T14:15:37.131Z,98404.92
2018-12-01T14:18:05.390Z,98409.00
2018-12-01T14:20:32.997Z,98408.42
2018-12-01T14:23:00.554Z,98407.38
2018-12-01T14:25:28.251Z,98398.31
2018-12-01T14:27:56.691Z,98401.38
2018-12-01T14:30:24.283Z,98403.89
2018-12-01T14:32:51.838Z,98401.16
2018-12-01T14:35:20.259Z,98402.77
2018-12-01T14:37:48.687Z,98403.27
2018-12-01T14:40:16.226Z,98400.98
2018-12-01T14:42:44.150Z,98402.70
2018-12-01T14:45:12.533Z,98397.70
2018-12-01T14:47:40.222Z,98411.33
2018-12-01T14:50:09.416Z,98407.50
2018-12-01T14:52:37.027Z,98412.02
2018-12-01T14:55:05.542Z,98400.58
2018-12-01T14:57:33.199Z,98397.65
2018-12-01T15:00:00.890Z,98393.45
2018-12-01T15:02:28.407Z,98389.52
2018-12-01T15:04:56.078Z,98383.30
2018-12-01T15:07:23.913Z,98386.94
2018-12-01T15:09:51.542Z,98390.59
2018-12-01T15:12:19.074Z,98392.56
2018-12-01T15:14:46.699Z,98385.88
2018-12-01T15:17:14.477Z,98384.13
2018-12-01T15:19:42.159Z,98385.45
2018-12-01T15:22:10.113Z,98387.87
2018-12-01T15:24:37.927Z,98383.91
2018-12-01T15:27:05.858Z,98389.39
2018-12-01T15:29:33.740Z,98383.94
2018-12-01T15:32:01.487Z,98379.30
2018-12-01T15:34:29.144Z,98375.34
2018-12-01T15:36:56.760Z,98382.86
2018-12-01T15:39:27.041Z,98381.08
2018-12-01T15:41:55.082Z,98383.72
2018-12-01T15:44:22.745Z,98384.75
2018-12-01T15:46:50.919Z,98381.88
2018-12-01T15:49:18.489Z,98381.80
2018-12-01T15:51:46.063Z,98380.48
2018-12-01T15:54:13.634Z,98379.62
2018-12-01T15:56:41.391Z,98380.66
2018-12-01T15:59:08.955Z,98376.60
2018-12-01T16:01:36.725Z,98377.41
2018-12-01T16:04:04.316Z,98380.67
2018-12-01T16:06:31.852Z,98375.42
2018-12-01T16:08:59.429Z,98381.72
2018-12-01T16:11:27.018Z,98377.30
2018-12-01T16:13:54.668Z,98377.74
2018-12-01T16:16:22.188Z,98374.21
2018-12-01T16:18:49.776Z,98374.82
2018-12-01T16:21:17.446Z,98371.70
2018-12-01T16:23:45.333Z,98368.64
2018-12-01T16:26:13.218Z,98366.97
2018-12-01T16:28:40.738Z,98360.75
2018-12-01T16:31:08.315Z,98364.44
2018-12-01T16:33:35.922Z,98359.80
2018-12-01T16:36:03.686Z,98358.72
2018-12-01T16:38:32.034Z,98357.00
2018-12-01T16:41:07.250Z,98359.77
2018-12-01T16:43:35.239Z,98354.78
2018-12-01T16:46:02.842Z,98348.73
2018-12-01T16:48:30.487Z,98354.53
2018-12-01T16:50:58.106Z,98356.84
2018-12-01T16:53:25.761Z,98353.44
2018-12-01T16:55:53.398Z,98356.55
2018-12-01T16:58:21.073Z,98355.75
2018-12-01T17:00:48.634Z,98350.16
2018-12-01T17:03:16.235Z,98352.39
2018-12-01T17:05:44.655Z,98348.59
2018-12-01T17:08:12.297Z,98344.77
2018-12-01T17:10:40.002Z,98344.30
2018-12-01T17:13:07.890Z,98345.69
2018-12-01T17:15:35.481Z,98344.30
2018-12-01T17:18:03.085Z,98337.68
2018-12-01T17:20:30.662Z,98339.36
2018-12-01T17:22:58.568Z,98337.22
2018-12-01T17:25:26.548Z,98333.26
2018-12-01T17:27:54.329Z,98332.74
2018-12-01T17:30:23.464Z,98333.66
2018-12-01T17:32:51.274Z,98328.09
2018-12-01T17:35:19.318Z,98324.27
2018-12-01T17:37:47.585Z,98318.27
2018-12-01T17:40:19.138Z,98317.53
2018-12-01T17:42:48.508Z,98323.26
2018-12-01T17:45:16.080Z,98322.97
2018-12-01T17:47:44.784Z,98321.67
2018-12-01T17:50:13.938Z,98323.87
2018-12-01T17:52:42.305Z,98326.63
2018-12-01T17:55:10.724Z,98325.81
2018-12-01T17:57:38.426Z,98322.00
2018-12-01T18:00:09.581Z,98320.74
2018-12-01T18:02:37.319Z,98313.25
2018-12-01T18:05:05.709Z,98317.14
2018-12-01T18:07:33.346Z,98318.09
2018-12-01T18:10:00.982Z,98304.45
2018-12-01T18:12:28.638Z,98321.36
2018-12-01T18:14:56.332Z,98314.78
2018-12-01T18:17:23.940Z,98311.70
2018-12-01T18:19:51.676Z,98318.73
2018-12-01T18:22:19.253Z,98313.93
2018-12-01T18:24:46.883Z,98303.03
2018-12-01T18:27:14.569Z,98306.00
2018-12-01T18:29:42.336Z,98293.77
2018-12-01T18:32:10.000Z,98298.63
2018-12-01T18:34:37.753Z,98298.56
2018-12-01T18:37:05.390Z,98297.20
2018-12-01T18:39:33.078Z,98293.27
2018-12-01T18:42:00.801Z,98302.97
2018-12-01T18:44:28.547Z,98300.86
2018-12-01T18:46:56.260Z,98295.99
2018-12-01T18:49:24.003Z,98288.13
2018-12-01T18:51:51.761Z,98287.61
2018-12-01T18:54:19.517Z,98283.20
2018-12-01T18:56:48.340Z,98276.77
2018-12-01T18:59:15.903Z,98267.91
2018-12-01T19:01:45.044Z,98263.63
2018-12-01T19:04:12.684Z,98269.22
2018-12-01T19:06:40.378Z,98264.41
2018-12-01T19:09:08.058Z,98259.09
2018-12-01T19:11:35.703Z,98254.25
2018-12-01T19:14:03.354Z,98252.82
2018-12-01T19:16:30.972Z,98262.41
2018-12-01T19:18:58.578Z,98257.14
2018-12-01T19:21:26.274Z,98255.44
2018-12-01T19:23:53.922Z,98250.05
2018-12-01T19:26:21.614Z,98248.81
2018-12-01T19:28:49.187Z,98243.86
2018-12-01T19:31:16.805Z,98250.45
2018-12-01T19:33:44.322Z,98248.21
2018-12-01T19:36:11.942Z,98249.14
2018-12-01T19:38:39.547Z,98243.81
2018-12-01T19:41:07.214Z,98246.17
2018-12-01T19:43:34.809Z,98245.72
2018-12-01T19:46:02.509Z,98244.73
2018-12-01T19:48:30.261Z,98236.00
2018-12-01T19:50:57.879Z,98232.90
2018-12-01T19:53:25.585Z,98221.88
2018-12-01T19:55:53.536Z,98216.14
2018-12-01T19:58:22.018Z,98218.23
2018-12-01T20:00:51.225Z,98217.33
2018-12-01T20:03:19.550Z,98215.99
2018-12-01T20:05:47.151Z,98210.67
2018-12-01T20:08:15.401Z,98212.36
2018-12-01T20:10:47.062Z,98211.92
2018-12-01T20:13:18.811Z,98214.06
2018-12-01T20:15:47.192Z,98218.39
2018-12-01T20:18:18.347Z,98220.11
2018-12-01T20:20:46.036Z,98218.39
2018-12-01T20:23:13.663Z,98220.50
2018-12-01T20:25:41.387Z,98220.42
2018-12-01T20:28:09.076Z,98219.05
2018-12-01T20:30:36.921Z,98213.41
2018-12-01T20:33:04.536Z,98211.55
2018-12-01T20:35:34.213Z,98204.97
2018-12-01T20:38:05.985Z,98205.05
2018-12-01T20:40:33.710Z,98198.92
2018-12-01T20:43:01.322Z,98195.45
2018-12-01T20:45:29.001Z,98199.48
2018-12-01T20:47:56.842Z,98190.34
2018-12-01T20:50:24.460Z,98191.59
2018-12-01T20:52:51.995Z,98188.42
2018-12-01T20:55:20.697Z,98181.53
2018-12-01T20:57:51.846Z,98182.05
2018-12-01T21:00:19.453Z,98185.30
2018-12-01T21:02:47.023Z,98177.48
2018-12-01T21:05:15.574Z,98173.61
2018-12-01T21:07:43.882Z,98180.58
2018-12-01T21:10:13.941Z,98176.12
2018-12-01T21:12:41.688Z,98178.41
2018-12-01T21:15:10.114Z,98169.05
2018-12-01T21:17:37.936Z,98167.83
2018-12-01T21:20:07.884Z,98166.13
2018-12-01T21:22:35.497Z,98160.19
2018-12-01T21:25:03.060Z,98154.08
2018-12-01T21:27:30.688Z,98147.50
2018-12-01T21:29:58.255Z,98147.94
2018-12-01T21:32:25.828Z,98147.39
2018-12-01T21:34:53.406Z,98143.85
2018-12-01T21:37:21.012Z,98147.34
2018-12-01T21:39:48.654Z,98141.47
2018-12-01T21:42:16.356Z,98137.59
2018-12-01T21:44:43.961Z,98134.66
2018-12-01T21:47:11.573Z,98131.23
2018-12-01T21:49:39.101Z,98124.02
2018-12-01T21:52:06.825Z,98124.56
2018-12-01T21:54:34.448Z,98112.98
2018-12-01T21:57:02.703Z,98116.33
2018-12-01T21:59:30.235Z,98114.70
2018-12-01T22:01:58.043Z,98110.58
2018-12-01T22:04:25.605Z,98110.03
2018-12-01T22:06:53.120Z,98107.16
2018-12-01T22:09:20.779Z,98101.08
2018-12-01T22:11:48.420Z,98103.52
2018-12-01T22:14:15.957Z,98105.77
2018-12-01T22:16:43.543Z,98103.00
2018-12-01T22:19:11.378Z,98101.19
2018-12-01T22:21:38.958Z,98095.92
2018-12-01T22:24:06.505Z,98097.64
2018-12-01T22:26:34.026Z,98097.64
2018-12-01T22:29:01.958Z,98093.67
2018-12-01T22:31:29.632Z,98093.06
2018-12-01T22:33:57.157Z,98094.93
2018-12-01T22:36:24.717Z,98090.86
2018-12-01T22:38:52.436Z,98086.48
2018-12-01T22:41:20.041Z,98086.00
2018-12-01T22:43:47.611Z,98075.95
2018-12-01T22:46:15.593Z,98075.13
2018-12-01T22:48:44.415Z,98071.30
2018-12-01T22:51:11.987Z,98063.81
2018-12-01T22:53:39.662Z,98061.20
2018-12-01T22:56:07.517Z,98050.66
2018-12-01T22:58:35.156Z,98047.02
2018-12-01T23:01:02.863Z,98057.28
2018-12-01T23:03:32.266Z,98050.89
2018-12-01T23:05:59.852Z,98040.73
2018-12-01T23:08:28.069Z,98040.42
2018-12-01T23:10:55.720Z,98039.21
2018-12-01T23:13:23.415Z,98033.86
2018-12-01T23:15:51.101Z,98033.28
2018-12-01T23:18:19.403Z,98028.58
2018-12-01T23:20:47.503Z,98025.78
2018-12-01T23:23:15.363Z,98021.94
2018-12-01T23:25:42.925Z,98020.48
2018-12-01T23:28:10.765Z,98020.03
2018-12-01T23:30:38.749Z,98009.50
2018-12-01T23:33:09.040Z,98008.19
2018-12-01T23:35:36.831Z,98004.81
2018-12-01T23:38:04.507Z,97999.52
2018-12-01T23:40:32.209Z,97995.48
2018-12-01T23:43:01.075Z,97995.20
2018-12-01T23:45:28.931Z,97997.92
2018-12-01T23:47:56.723Z,97990.25
2018-12-01T23:50:25.934Z,97995.58
2018-12-01T23:52:56.052Z,97985.41
2018-12-01T23:55:24.127Z,97989.50
2018-12-01T23:57:52.079Z,97977.23
